Time;durP1;ratioP1;P1;durP2;ratioP2;P2;SDS_P1;SDS_P2;PMS_P1;PMS_P2;Temp;Humidity;BMP_temperature;BMP_pressure;BME280_temperature;BME280_humidity;BME280_pressure;Samples;Min_cycle;Max_cycle;Signal;HPM_P1;HPM_P2
2022/03/05 00:00:59;;;;;;;9.73;4.43;;;0.20;99.90;;;;;;5057895;28;20219;-51
2022/03/05 00:03:44;;;;;;;6.27;4.63;;;0.30;99.90;;;;;;5063076;28;20228;-54
2022/03/05 00:06:28;;;;;;;7.13;4.20;;;0.30;99.90;;;;;;5061499;28;20228;-55
2022/03/05 00:09:13;;;;;;;8.87;5.03;;;0.30;99.90;;;;;;5053798;28;20182;-55
2022/03/05 00:11:57;;;;;;;3.90;2.97;;;0.40;99.90;;;;;;5061423;28;20186;-54
2022/03/05 00:14:42;;;;;;;3.83;2.73;;;0.50;99.90;;;;;;5062170;28;20216;-49
2022/03/05 00:17:27;;;;;;;2.10;2.00;;;0.40;99.90;;;;;;5056483;28;20233;-50
2022/03/05 00:20:11;;;;;;;4.73;3.63;;;0.30;99.90;;;;;;5063530;28;20190;-54
2022/03/05 00:22:56;;;;;;;4.97;3.77;;;0.40;99.90;;;;;;5064183;28;20230;-54
2022/03/05 00:25:41;;;;;;;4.53;3.43;;;0.40;99.90;;;;;;5059423;28;20241;-52
2022/03/05 00:28:25;;;;;;;5.10;3.10;;;0.30;99.90;;;;;;5055522;28;20193;-53
2022/03/05 00:31:09;;;;;;;3.33;3.03;;;0.20;99.90;;;;;;5058688;28;20205;-55
2022/03/05 00:33:53;;;;;;;7.80;3.67;;;0.10;99.90;;;;;;5061675;28;20265;-50
2022/03/05 00:36:38;;;;;;;5.20;2.93;;;0.20;99.90;;;;;;5058577;28;20270;-48
2022/03/05 00:39:22;;;;;;;3.13;2.23;;;0.20;99.90;;;;;;5056792;28;20213;-51
2022/03/05 00:42:07;;;;;;;6.03;4.17;;;0.20;99.90;;;;;;5059599;28;20193;-53
2022/03/05 00:44:51;;;;;;;6.23;4.47;;;0.30;99.90;;;;;;5062348;28;20208;-53
2022/03/05 00:47:36;;;;;;;8.83;2.37;;;0.10;99.90;;;;;;5056570;28;20202;-55
2022/03/05 00:50:21;;;;;;;5.53;2.27;;;0.10;99.90;;;;;;5061584;28;20198;-55
2022/03/05 00:53:06;;;;;;;5.03;3.23;;;0.20;99.90;;;;;;5060730;28;20204;-58
2022/03/05 00:55:50;;;;;;;30.87;13.30;;;0.00;99.90;;;;;;5055998;28;20276;-51
2022/03/05 00:58:35;;;;;;;6.10;2.97;;;-0.10;99.90;;;;;;5058169;28;20228;-56
2022/03/05 01:01:19;;;;;;;2.97;2.17;;;-0.20;99.90;;;;;;5061312;28;20190;-55
2022/03/05 01:04:04;;;;;;;9.23;4.23;;;-0.30;99.90;;;;;;5058730;28;20197;-51
2022/03/05 01:06:49;;;;;;;4.07;3.27;;;-0.50;99.90;;;;;;5061886;28;20198;-54
2022/03/05 01:09:34;;;;;;;8.17;3.27;;;-0.50;99.90;;;;;;5055745;28;20228;-57
2022/03/05 01:12:18;;;;;;;5.87;2.50;;;-0.60;99.90;;;;;;5064487;28;20220;-48
2022/03/05 01:15:05;;;;;;;3.97;2.33;;;-0.60;99.90;;;;;;5067510;28;20193;-52
2022/03/05 01:17:49;;;;;;;3.47;2.10;;;-0.70;99.90;;;;;;5091502;28;20272;-53
2022/03/05 01:20:34;;;;;;;6.73;4.37;;;-0.80;99.90;;;;;;5068775;28;20217;-53
2022/03/05 01:23:18;;;;;;;3.70;3.10;;;-0.90;99.90;;;;;;5065124;28;20225;-57
2022/03/05 01:26:02;;;;;;;8.37;4.07;;;-0.90;99.90;;;;;;5063923;28;20265;-55
2022/03/05 01:28:47;;;;;;;3.77;3.47;;;-1.00;99.90;;;;;;5060366;28;20221;-49
2022/03/05 01:31:31;;;;;;;11.37;7.53;;;-1.00;99.90;;;;;;5059519;28;20260;-52
2022/03/05 01:34:16;;;;;;;10.77;6.07;;;-0.90;99.90;;;;;;5063073;28;20236;-53
2022/03/05 01:37:00;;;;;;;6.90;4.03;;;-0.80;99.90;;;;;;5063620;28;20225;-51
2022/03/05 01:39:45;;;;;;;13.70;3.27;;;-1.00;99.90;;;;;;5060969;28;20243;-53
2022/03/05 01:42:30;;;;;;;2.97;2.33;;;-1.00;99.90;;;;;;5067571;28;20218;-48
2022/03/05 01:45:14;;;;;;;7.20;4.07;;;-1.20;99.90;;;;;;5064023;28;20301;-52
2022/03/05 01:47:59;;;;;;;4.43;2.13;;;-1.20;99.90;;;;;;5057197;28;20217;-58
2022/03/05 01:50:44;;;;;;;2.70;2.33;;;-1.30;99.90;;;;;;5065341;28;20249;-54
2022/03/05 01:53:29;;;;;;;5.57;3.17;;;-1.40;99.90;;;;;;5061955;28;20189;-55
2022/03/05 01:56:13;;;;;;;3.50;2.60;;;-1.50;99.90;;;;;;5064577;28;20287;-56
2022/03/05 01:58:59;;;;;;;8.63;2.60;;;-1.50;99.90;;;;;;5079087;28;20201;-52
2022/03/05 02:01:43;;;;;;;6.93;2.67;;;-1.50;99.90;;;;;;5065373;28;20229;-56
2022/03/05 02:04:27;;;;;;;3.97;2.73;;;-1.50;99.90;;;;;;5080386;28;20218;-56
2022/03/05 02:07:12;;;;;;;3.97;3.10;;;-1.50;99.90;;;;;;5058787;28;20240;-53
2022/03/05 02:09:56;;;;;;;6.50;2.50;;;-1.50;99.90;;;;;;5060790;28;20264;-58
2022/03/05 02:12:40;;;;;;;6.23;2.97;;;-1.60;99.90;;;;;;5065162;28;20274;-53
2022/03/05 02:15:25;;;;;;;4.73;3.47;;;-1.60;99.90;;;;;;5065880;28;20251;-56
2022/03/05 02:18:09;;;;;;;2.90;2.57;;;-1.60;99.90;;;;;;5056115;28;20208;-53
2022/03/05 02:20:54;;;;;;;4.17;2.70;;;-1.60;99.90;;;;;;5066277;28;21418;-52
2022/03/05 02:23:39;;;;;;;5.13;2.90;;;-1.60;99.90;;;;;;5065758;28;20225;-50
2022/03/05 02:26:24;;;;;;;3.80;3.50;;;-1.60;99.90;;;;;;5062686;28;20342;-50
2022/03/05 02:29:09;;;;;;;5.77;3.23;;;-1.70;99.90;;;;;;5061498;28;20201;-56
2022/03/05 02:31:54;;;;;;;3.93;2.70;;;-1.70;99.90;;;;;;5063288;28;20185;-49
2022/03/05 02:34:38;;;;;;;3.30;2.33;;;-1.70;99.90;;;;;;5064181;28;20189;-55
2022/03/05 02:37:23;;;;;;;3.00;1.90;;;-1.70;99.90;;;;;;5063413;28;20225;-49
2022/03/05 02:40:07;;;;;;;4.70;2.63;;;-1.80;99.90;;;;;;5060354;28;20259;-56
2022/03/05 02:42:52;;;;;;;2.53;2.33;;;-1.80;99.90;;;;;;5062892;28;20221;-51
2022/03/05 02:45:37;;;;;;;1.87;1.30;;;-1.90;99.90;;;;;;5066909;28;20250;-57
2022/03/05 02:48:22;;;;;;;3.13;1.97;;;-1.90;99.90;;;;;;5055892;28;20226;-55
2022/03/05 02:51:06;;;;;;;4.47;2.20;;;-1.90;99.90;;;;;;5066471;28;20338;-52
2022/03/05 02:53:50;;;;;;;6.97;2.37;;;-1.90;99.90;;;;;;5062133;28;20236;-57
2022/03/05 03:00:16;;;;;;;3.50;1.93;;;-1.90;99.90;;;;;;5056230;28;20243;-55
2022/03/05 03:03:01;;;;;;;7.43;2.77;;;-1.80;99.90;;;;;;5060985;28;20197;-55
2022/03/05 03:05:45;;;;;;;6.43;3.90;;;-1.90;99.90;;;;;;5059635;28;20198;-55
2022/03/05 03:08:30;;;;;;;5.00;2.00;;;-1.90;99.90;;;;;;5058678;28;21201;-56
2022/03/05 03:11:14;;;;;;;3.40;2.37;;;-1.90;99.90;;;;;;5063291;28;20194;-56
2022/03/05 03:13:58;;;;;;;4.13;2.63;;;-1.90;99.90;;;;;;5061260;28;20169;-51
2022/03/05 03:16:43;;;;;;;5.07;2.40;;;-1.90;99.90;;;;;;5064199;28;20225;-54
2022/03/05 03:19:27;;;;;;;3.27;2.17;;;-2.00;99.90;;;;;;5058797;28;20350;-54
2022/03/05 03:22:12;;;;;;;4.70;3.53;;;-2.00;99.90;;;;;;5061328;28;20220;-51
2022/03/05 03:24:56;;;;;;;2.53;2.33;;;-2.00;99.90;;;;;;5065592;28;20189;-56
2022/03/05 03:27:41;;;;;;;2.43;2.27;;;-2.00;99.90;;;;;;5060052;28;20668;-55
2022/03/05 03:30:25;;;;;;;4.43;1.77;;;-2.10;99.90;;;;;;5061007;28;20265;-54
2022/03/05 03:33:09;;;;;;;3.10;2.20;;;-2.10;99.90;;;;;;5059529;28;20193;-54
2022/03/05 03:35:54;;;;;;;1.80;1.63;;;-2.10;99.90;;;;;;5090011;28;20233;-53
2022/03/05 03:38:40;;;;;;;7.43;3.47;;;-2.10;99.90;;;;;;5059080;28;20232;-57
2022/03/05 03:41:24;;;;;;;2.90;1.97;;;-2.10;99.90;;;;;;5063436;28;20238;-52
2022/03/05 03:44:09;;;;;;;4.87;3.67;;;-2.20;99.90;;;;;;5062200;28;20189;-50
2022/03/05 03:46:56;;;;;;;2.23;1.83;;;-2.20;99.90;;;;;;5064195;28;20193;-52
2022/03/05 03:49:41;;;;;;;5.13;3.63;;;-2.20;99.90;;;;;;5060770;28;20186;-52
2022/03/05 03:52:25;;;;;;;2.23;2.07;;;-2.20;99.90;;;;;;5061722;28;20240;-55
2022/03/05 03:55:12;;;;;;;3.93;2.00;;;-2.30;99.90;;;;;;5063731;28;20197;-55
2022/03/05 03:57:57;;;;;;;4.97;2.97;;;-2.30;99.90;;;;;;5057321;28;20275;-53
2022/03/05 04:00:41;;;;;;;7.67;3.33;;;-2.20;99.90;;;;;;5065115;28;20190;-56
2022/03/05 04:03:26;;;;;;;3.10;2.30;;;-2.30;99.90;;;;;;5063302;28;20185;-55
2022/03/05 04:06:10;;;;;;;2.73;2.53;;;-2.30;99.90;;;;;;5060458;28;20609;-50
2022/03/05 04:08:55;;;;;;;3.07;2.30;;;-2.40;99.90;;;;;;5056781;28;20261;-50
2022/03/05 04:11:39;;;;;;;2.17;2.07;;;-2.40;99.90;;;;;;5064110;28;20185;-52
2022/03/05 04:14:24;;;;;;;1.50;1.50;;;-2.40;99.90;;;;;;5059200;28;20210;-53
2022/03/05 04:17:08;;;;;;;4.43;2.23;;;-2.40;99.90;;;;;;5061245;28;20314;-56
2022/03/05 04:19:53;;;;;;;3.47;3.17;;;-2.40;99.90;;;;;;5061116;28;20244;-54
2022/03/05 04:22:38;;;;;;;5.87;3.53;;;-2.40;99.90;;;;;;5063929;28;20221;-55
2022/03/05 04:25:22;;;;;;;3.20;2.13;;;-2.50;99.90;;;;;;5063746;28;20196;-55
2022/03/05 04:28:07;;;;;;;3.63;3.37;;;-2.50;99.90;;;;;;5059278;28;20193;-53
2022/03/05 04:30:51;;;;;;;3.60;1.93;;;-2.50;99.90;;;;;;5060590;28;20234;-54
2022/03/05 04:33:36;;;;;;;8.60;5.17;;;-2.60;99.90;;;;;;5062864;28;20198;-47
2022/03/05 04:36:20;;;;;;;5.73;2.83;;;-2.60;99.90;;;;;;5060376;28;20228;-52
2022/03/05 04:39:05;;;;;;;8.27;5.20;;;-2.50;99.90;;;;;;5057156;28;20213;-52
2022/03/05 04:41:49;;;;;;;4.80;3.23;;;-2.50;99.90;;;;;;5059703;28;20283;-57
2022/03/05 04:44:33;;;;;;;4.83;3.17;;;-2.50;99.90;;;;;;5060106;28;20216;-52
2022/03/05 04:47:18;;;;;;;2.90;1.97;;;-2.60;99.90;;;;;;5062513;28;20270;-50
2022/03/05 04:50:04;;;;;;;2.00;1.83;;;-2.60;99.90;;;;;;5062693;28;20226;-52
2022/03/05 04:52:48;;;;;;;16.70;3.17;;;-2.60;99.90;;;;;;5094758;28;20201;-54
2022/03/05 04:55:32;;;;;;;3.77;3.03;;;-2.70;99.90;;;;;;5066840;28;20209;-51
2022/03/05 04:58:18;;;;;;;4.33;2.83;;;-2.70;99.90;;;;;;5061077;28;20200;-49
2022/03/05 05:01:03;;;;;;;8.37;2.33;;;-2.70;99.90;;;;;;5074779;28;20201;-52
2022/03/05 05:03:47;;;;;;;8.83;3.47;;;-2.60;99.90;;;;;;5067576;28;20244;-53
2022/03/05 05:06:31;;;;;;;4.10;3.67;;;-2.70;99.90;;;;;;5071485;28;20285;-56
2022/03/05 05:09:16;;;;;;;3.33;2.23;;;-2.60;99.90;;;;;;5068450;28;20197;-53
2022/03/05 05:12:00;;;;;;;5.40;4.50;;;-2.60;99.90;;;;;;5076686;28;20200;-49
2022/03/05 05:14:45;;;;;;;3.00;2.80;;;-2.60;99.90;;;;;;5068712;28;20251;-51
2022/03/05 05:17:39;;;;;;;3.90;2.40;;;-2.60;99.90;;;;;;5065643;28;20225;-50
2022/03/05 05:20:23;;;;;;;4.07;2.53;;;-2.60;99.90;;;;;;5061175;28;20613;-51
2022/03/05 05:23:07;;;;;;;10.30;4.53;;;-2.70;99.90;;;;;;5064559;28;20221;-54
2022/03/05 05:25:52;;;;;;;8.40;4.90;;;-2.70;99.90;;;;;;5068374;28;20189;-55
2022/03/05 05:28:36;;;;;;;5.90;2.80;;;-2.60;99.90;;;;;;5057014;28;20256;-52
2022/03/05 05:31:20;;;;;;;3.70;2.83;;;-2.70;99.90;;;;;;5066387;28;20189;-51
2022/03/05 05:34:05;;;;;;;1.77;1.77;;;-2.80;99.90;;;;;;5067760;28;20243;-55
2022/03/05 05:36:50;;;;;;;3.67;3.30;;;-2.70;99.90;;;;;;5064149;28;20236;-54
2022/03/05 05:39:35;;;;;;;5.10;2.77;;;-2.70;99.90;;;;;;5064372;28;20197;-48
2022/03/05 05:42:19;;;;;;;4.57;1.93;;;-2.70;99.90;;;;;;5089486;28;20241;-53
2022/03/05 05:45:04;;;;;;;3.63;3.27;;;-2.70;99.90;;;;;;5065673;28;20178;-56
2022/03/05 05:47:49;;;;;;;7.07;2.10;;;-2.70;99.90;;;;;;5067372;28;20216;-56
2022/03/05 05:50:33;;;;;;;12.70;2.87;;;-2.70;99.90;;;;;;5063094;28;20201;-55
2022/03/05 05:53:17;;;;;;;3.27;3.00;;;-2.70;99.90;;;;;;5065264;28;20197;-53
2022/03/05 05:56:01;;;;;;;5.43;3.17;;;-2.60;99.90;;;;;;5066754;28;20217;-55
2022/03/05 05:58:47;;;;;;;7.73;2.67;;;-2.60;99.90;;;;;;5060039;28;20194;-51
2022/03/05 06:01:31;;;;;;;7.77;4.97;;;-2.50;99.90;;;;;;5072726;28;20258;-54
2022/03/05 06:04:16;;;;;;;8.77;3.67;;;-2.40;99.90;;;;;;5067313;28;20201;-55
2022/03/05 06:07:01;;;;;;;7.53;3.40;;;-2.40;99.90;;;;;;5072275;28;20276;-57
2022/03/05 06:09:45;;;;;;;9.27;6.77;;;-2.40;99.90;;;;;;5076956;28;20239;-49
2022/03/05 06:12:29;;;;;;;9.83;4.60;;;-2.30;99.90;;;;;;5075733;28;20204;-58
2022/03/05 06:15:14;;;;;;;8.67;2.93;;;-2.20;99.90;;;;;;5072633;28;20354;-51
2022/03/05 06:17:58;;;;;;;6.30;3.67;;;-1.80;99.90;;;;;;5072121;28;20634;-52
2022/03/05 06:20:43;;;;;;;4.83;3.87;;;-1.60;99.90;;;;;;5074811;28;20200;-56
2022/03/05 06:23:29;;;;;;;3.93;2.97;;;-1.50;99.90;;;;;;5075281;28;20225;-52
2022/03/05 06:26:13;;;;;;;4.63;2.67;;;-1.30;99.90;;;;;;5073907;28;20201;-52
2022/03/05 06:28:58;;;;;;;10.33;4.70;;;-1.20;99.90;;;;;;5070726;28;20189;-53
2022/03/05 06:31:43;;;;;;;5.27;3.07;;;-1.30;99.90;;;;;;5076467;28;20315;-52
2022/03/05 06:34:27;;;;;;;2.47;2.37;;;-1.30;99.90;;;;;;5077648;28;20197;-57
2022/03/05 06:37:12;;;;;;;5.33;4.23;;;-1.20;99.90;;;;;;5072211;28;20647;-50
2022/03/05 06:39:57;;;;;;;6.27;4.10;;;-1.10;99.90;;;;;;5074370;28;20213;-50
2022/03/05 06:42:42;;;;;;;3.87;3.00;;;-1.30;99.90;;;;;;5072207;28;20193;-54
2022/03/05 06:45:27;;;;;;;4.43;2.60;;;-1.40;99.90;;;;;;5065694;28;20189;-51
2022/03/05 06:48:11;;;;;;;3.20;2.83;;;-1.40;99.90;;;;;;5073263;28;20189;-52
2022/03/05 06:50:56;;;;;;;8.73;3.70;;;-1.30;99.90;;;;;;5068381;28;20205;-60
2022/03/05 06:53:40;;;;;;;7.30;2.50;;;-1.20;99.90;;;;;;5073200;28;20233;-55
2022/03/05 06:56:25;;;;;;;10.60;3.67;;;-1.30;99.90;;;;;;5061342;28;20334;-49
2022/03/05 06:59:09;;;;;;;4.60;4.23;;;-1.20;99.90;;;;;;5065731;28;20205;-55
2022/03/05 07:01:54;;;;;;;6.07;4.07;;;-1.20;99.90;;;;;;5071825;28;20213;-54
2022/03/05 07:04:38;;;;;;;6.07;2.83;;;-1.00;99.90;;;;;;5065451;28;20251;-55
2022/03/05 07:07:23;;;;;;;10.83;4.93;;;-0.90;99.90;;;;;;5062276;28;20198;-56
2022/03/05 07:10:09;;;;;;;3.77;3.20;;;-0.70;99.90;;;;;;5062976;28;20239;-53
2022/03/05 07:12:53;;;;;;;5.80;4.23;;;-0.60;99.90;;;;;;5071986;28;20196;-57
2022/03/05 07:15:38;;;;;;;5.97;4.77;;;-0.60;99.90;;;;;;5073958;28;20185;-50
2022/03/05 07:18:22;;;;;;;6.53;3.30;;;-0.60;99.90;;;;;;5070559;28;20608;-49
2022/03/05 07:21:07;;;;;;;6.93;3.10;;;-0.60;99.90;;;;;;5074480;28;20197;-49
2022/03/05 07:23:51;;;;;;;8.03;5.07;;;-0.70;99.90;;;;;;5073760;28;20217;-54
2022/03/05 07:26:37;;;;;;;6.00;4.33;;;-0.80;99.90;;;;;;5075620;28;20201;-49
2022/03/05 07:29:21;;;;;;;6.17;4.47;;;-0.80;99.90;;;;;;5065464;28;20193;-52
2022/03/05 07:32:06;;;;;;;7.17;3.30;;;-0.80;99.90;;;;;;5076940;28;20229;-51
2022/03/05 07:34:50;;;;;;;8.23;4.43;;;-0.80;99.90;;;;;;5075065;28;20254;-50
2022/03/05 07:37:35;;;;;;;7.53;3.53;;;-0.80;99.90;;;;;;5072162;28;20344;-51
2022/03/05 07:40:19;;;;;;;8.17;3.67;;;-0.70;99.90;;;;;;5072257;28;20215;-58
2022/03/05 07:43:04;;;;;;;5.90;3.90;;;-0.70;99.90;;;;;;5076131;28;20224;-58
2022/03/05 07:45:48;;;;;;;4.47;3.97;;;-0.60;99.90;;;;;;5075748;28;20244;-52
2022/03/05 07:48:32;;;;;;;9.37;4.60;;;-0.60;99.90;;;;;;5046730;28;20182;-51
2022/03/05 07:51:16;;;;;;;7.50;3.63;;;-0.50;99.90;;;;;;5043445;28;20218;-55
2022/03/05 07:54:01;;;;;;;7.27;4.17;;;-0.40;99.90;;;;;;5045518;28;20255;-56
2022/03/05 07:56:46;;;;;;;6.30;2.37;;;-0.30;99.90;;;;;;5046342;28;20272;-58
2022/03/05 07:59:30;;;;;;;9.40;3.53;;;-0.30;99.90;;;;;;5069791;28;20215;-55
2022/03/05 08:02:17;;;;;;;6.33;4.17;;;-0.10;99.90;;;;;;5076585;28;20194;-57
2022/03/05 08:05:01;;;;;;;8.43;5.27;;;0.00;99.90;;;;;;5073993;28;20197;-59
2022/03/05 08:07:46;;;;;;;7.80;4.97;;;0.00;99.90;;;;;;5071711;28;20240;-56
2022/03/05 08:10:30;;;;;;;7.47;5.17;;;0.10;99.90;;;;;;5071294;28;20197;-58
2022/03/05 08:13:14;;;;;;;8.17;3.23;;;0.10;99.90;;;;;;5064649;28;20193;-58
2022/03/05 08:15:58;;;;;;;6.27;3.93;;;0.20;99.90;;;;;;5070739;28;20225;-56
2022/03/05 08:18:43;;;;;;;8.40;4.10;;;0.30;99.90;;;;;;5075681;28;20221;-56
2022/03/05 08:21:28;;;;;;;3.47;3.17;;;0.40;99.90;;;;;;5074324;28;20211;-56
2022/03/05 08:24:12;;;;;;;6.00;3.67;;;0.50;99.90;;;;;;5076017;28;20197;-48
2022/03/05 08:26:57;;;;;;;8.03;3.90;;;0.60;99.90;;;;;;5070786;28;20213;-55
2022/03/05 08:29:41;;;;;;;8.20;3.53;;;0.80;99.90;;;;;;5081690;28;20324;-52
2022/03/05 08:32:25;;;;;;;6.60;4.80;;;0.90;99.90;;;;;;5076676;28;21339;-54
2022/03/05 08:35:11;;;;;;;7.20;5.63;;;1.00;99.90;;;;;;5074811;28;20218;-54
2022/03/05 08:37:56;;;;;;;7.37;4.27;;;1.10;99.90;;;;;;5075778;28;20259;-54
2022/03/05 08:40:40;;;;;;;12.57;4.40;;;1.20;99.90;;;;;;5086071;28;20204;-60
2022/03/05 08:43:25;;;;;;;6.70;4.03;;;1.40;99.90;;;;;;5060391;28;20267;-61
2022/03/05 08:46:10;;;;;;;6.70;3.47;;;1.40;99.90;;;;;;5072343;28;20193;-60
2022/03/05 08:48:54;;;;;;;6.00;3.30;;;1.40;99.90;;;;;;5069283;28;20208;-60
2022/03/05 08:51:39;;;;;;;8.67;3.57;;;1.60;99.90;;;;;;5066796;28;20252;-60
2022/03/05 08:54:25;;;;;;;5.83;3.37;;;1.90;99.90;;;;;;5068903;28;20198;-59
2022/03/05 08:57:11;;;;;;;5.03;3.27;;;2.40;99.90;;;;;;5069747;28;20220;-60
2022/03/05 08:59:56;;;;;;;4.73;4.17;;;2.90;99.90;;;;;;5066675;28;20205;-60
2022/03/05 09:02:42;;;;;;;3.67;2.83;;;3.20;99.90;;;;;;5070086;28;20202;-60
2022/03/05 09:05:26;;;;;;;5.67;2.90;;;3.40;99.90;;;;;;5068413;28;20271;-60
2022/03/05 09:08:11;;;;;;;4.57;2.93;;;3.50;99.90;;;;;;5066363;28;20221;-56
2022/03/05 09:10:57;;;;;;;7.07;3.23;;;3.70;99.90;;;;;;5069274;28;20228;-55
2022/03/05 09:13:43;;;;;;;3.70;2.07;;;3.40;99.90;;;;;;5067260;28;20205;-59
2022/03/05 09:16:28;;;;;;;4.23;2.73;;;3.60;99.90;;;;;;5066950;28;20257;-59
2022/03/05 09:19:12;;;;;;;7.43;3.20;;;3.90;99.90;;;;;;5069240;28;20189;-55
2022/03/05 09:21:57;;;;;;;7.30;2.37;;;4.10;99.90;;;;;;5065864;28;20192;-55
2022/03/05 09:24:41;;;;;;;5.60;2.60;;;4.30;99.90;;;;;;5068570;28;20232;-58
2022/03/05 09:27:26;;;;;;;6.17;2.87;;;4.40;99.90;;;;;;5069432;28;20209;-55
2022/03/05 09:30:11;;;;;;;5.20;2.70;;;4.40;99.90;;;;;;5065913;28;20239;-53
2022/03/05 09:32:55;;;;;;;4.47;2.83;;;4.70;99.90;;;;;;5068302;28;20194;-51
2022/03/05 09:35:41;;;;;;;5.90;3.40;;;5.00;99.90;;;;;;5068441;28;20244;-53
2022/03/05 09:38:25;;;;;;;8.37;3.23;;;5.30;99.90;;;;;;5066042;28;20225;-52
2022/03/05 09:41:10;;;;;;;5.27;3.20;;;5.20;99.90;;;;;;5068842;28;20206;-55
2022/03/05 09:43:54;;;;;;;6.43;2.80;;;5.60;99.90;;;;;;5066652;28;20201;-58
2022/03/05 09:46:41;;;;;;;8.13;3.07;;;5.50;99.80;;;;;;5066625;28;20197;-56
2022/03/05 09:49:27;;;;;;;3.80;2.40;;;5.60;98.10;;;;;;5068853;28;20197;-54
2022/03/05 09:52:12;;;;;;;3.47;2.33;;;5.70;96.50;;;;;;5065437;28;20236;-54
2022/03/05 09:54:56;;;;;;;3.63;2.30;;;5.60;96.00;;;;;;5067635;28;20193;-54
2022/03/05 09:57:40;;;;;;;3.33;1.90;;;5.70;95.50;;;;;;5068867;28;20303;-54
2022/03/05 10:00:25;;;;;;;6.27;2.20;;;5.30;95.50;;;;;;5065143;28;20240;-55
2022/03/05 10:03:14;;;;;;;3.73;2.03;;;5.20;95.90;;;;;;5068263;28;20251;-54
2022/03/05 10:06:16;;;;;;;5.33;2.30;;;5.30;95.30;;;;;;5067977;28;20205;-59
2022/03/05 10:09:00;;;;;;;4.80;2.07;;;5.50;96.40;;;;;;5065366;28;20204;-57
2022/03/05 10:11:44;;;;;;;4.90;1.80;;;6.00;95.10;;;;;;5068453;28;20664;-55
2022/03/05 10:14:28;;;;;;;3.50;2.00;;;6.10;94.20;;;;;;5067175;28;20247;-58
2022/03/05 10:17:13;;;;;;;4.53;2.30;;;6.40;94.20;;;;;;5064732;28;20239;-54
2022/03/05 10:20:05;;;;;;;2.60;2.37;;;5.90;93.80;;;;;;5068778;28;20197;-57
2022/03/05 10:23:07;;;;;;;3.03;1.87;;;5.90;94.00;;;;;;5066042;28;20366;-56
2022/03/05 10:25:53;;;;;;;2.80;2.30;;;6.70;92.60;;;;;;5064794;28;20193;-57
2022/03/05 10:28:39;;;;;;;2.17;1.60;;;6.90;91.20;;;;;;5068232;28;20275;-49
2022/03/05 10:31:23;;;;;;;4.60;2.27;;;6.30;91.00;;;;;;5065453;28;20186;-54
2022/03/05 10:34:07;;;;;;;2.70;1.73;;;6.50;91.00;;;;;;5065667;28;20212;-58
2022/03/05 10:37:03;;;;;;;4.30;3.27;;;6.70;91.30;;;;;;5067488;28;20248;-56
2022/03/05 10:39:49;;;;;;;4.73;2.37;;;6.90;91.70;;;;;;5064918;28;20256;-57
2022/03/05 10:42:38;;;;;;;3.70;1.40;;;6.70;90.00;;;;;;5066790;28;20197;-54
2022/03/05 10:45:22;;;;;;;2.43;1.40;;;6.60;85.30;;;;;;5066769;28;20268;-50
2022/03/05 10:48:20;;;;;;;4.37;1.60;;;6.70;83.60;;;;;;5064141;28;20335;-53
2022/03/05 10:51:11;;;;;;;2.57;1.90;;;6.70;84.30;;;;;;5066053;28;20271;-55
2022/03/05 10:53:56;;;;;;;4.30;2.30;;;8.00;82.80;;;;;;5067513;28;20225;-55
2022/03/05 10:56:40;;;;;;;5.50;2.30;;;9.20;81.30;;;;;;5064210;28;20260;-51
2022/03/05 10:59:24;;;;;;;10.07;2.60;;;10.00;78.50;;;;;;5067416;28;20247;-50
2022/03/05 11:02:11;;;;;;;3.67;2.73;;;9.20;78.90;;;;;;5067554;28;20291;-56
2022/03/05 11:04:57;;;;;;;4.57;2.83;;;9.40;78.70;;;;;;5063744;28;20577;-57
2022/03/05 11:07:41;;;;;;;5.10;2.67;;;8.20;79.20;;;;;;5066754;28;20307;-53
2022/03/05 11:10:29;;;;;;;5.43;2.57;;;7.20;78.90;;;;;;5065538;28;20278;-58
2022/03/05 11:13:13;;;;;;;3.80;2.23;;;6.40;80.20;;;;;;5064200;28;20213;-56
2022/03/05 11:15:59;;;;;;;3.17;2.03;;;6.60;80.90;;;;;;5067150;28;20239;-51
2022/03/05 11:18:44;;;;;;;7.43;3.90;;;6.30;81.50;;;;;;5064714;28;20197;-55
2022/03/05 11:21:29;;;;;;;5.43;3.07;;;6.40;84.00;;;;;;5065969;28;20193;-55
2022/03/05 11:24:15;;;;;;;4.07;1.83;;;6.40;83.20;;;;;;5067282;28;20209;-54
2022/03/05 11:27:00;;;;;;;6.13;3.57;;;6.00;84.20;;;;;;5063328;28;20294;-53
2022/03/05 11:29:52;;;;;;;7.63;3.77;;;5.70;89.10;;;;;;5066408;28;20208;-57
2022/03/05 11:32:37;;;;;;;5.27;2.70;;;5.30;90.80;;;;;;5066161;28;20201;-49
2022/03/05 11:35:24;;;;;;;6.60;2.73;;;5.20;90.70;;;;;;5062852;28;20256;-57
2022/03/05 11:38:33;;;;;;;4.57;2.77;;;5.40;90.70;;;;;;5066370;28;20271;-56
2022/03/05 11:41:20;;;;;;;5.93;2.70;;;5.60;90.80;;;;;;5066257;28;20193;-55
2022/03/05 11:44:15;;;;;;;4.03;2.40;;;5.50;91.50;;;;;;5063435;28;20237;-56
2022/03/05 11:47:18;;;;;;;5.97;2.90;;;5.70;91.50;;;;;;5065893;28;20252;-57
2022/03/05 11:50:07;;;;;;;3.60;1.93;;;5.80;91.30;;;;;;5066496;28;20246;-52
2022/03/05 11:52:51;;;;;;;3.43;1.93;;;5.90;90.60;;;;;;5063309;28;20197;-49
2022/03/05 11:55:41;;;;;;;4.47;2.30;;;6.00;90.30;;;;;;5065451;28;20248;-55
2022/03/05 11:58:28;;;;;;;4.23;1.80;;;5.80;88.90;;;;;;5066802;28;20209;-57
2022/03/05 12:01:35;;;;;;;4.73;2.20;;;5.70;88.80;;;;;;5062630;28;20198;-57
2022/03/05 12:04:28;;;;;;;3.40;2.23;;;5.60;88.90;;;;;;5065931;28;20247;-59
2022/03/05 12:07:13;;;;;;;5.20;2.33;;;5.90;88.80;;;;;;5066609;28;20225;-56
2022/03/05 12:09:59;;;;;;;6.00;2.37;;;5.70;88.40;;;;;;5062637;28;20220;-55
2022/03/05 12:12:54;;;;;;;2.83;2.07;;;5.70;88.30;;;;;;5066057;28;20269;-53
2022/03/05 12:15:45;;;;;;;4.37;1.90;;;5.70;88.70;;;;;;5065974;28;20255;-59
2022/03/05 12:18:30;;;;;;;2.23;1.63;;;5.50;89.20;;;;;;5063318;28;20236;-54
2022/03/05 12:21:41;;;;;;;3.63;2.77;;;5.60;89.00;;;;;;5066244;28;20232;-57
2022/03/05 12:24:25;;;;;;;3.90;1.80;;;6.00;88.60;;;;;;5065843;28;20260;-57
2022/03/05 12:27:15;;;;;;;4.67;2.30;;;6.30;88.20;;;;;;5062622;28;20244;-50
2022/03/05 12:29:59;;;;;;;5.13;2.63;;;6.80;87.60;;;;;;5066205;28;20190;-52
2022/03/05 12:32:45;;;;;;;5.30;3.03;;;7.30;86.60;;;;;;5065188;28;20200;-49
2022/03/05 12:35:32;;;;;;;5.07;2.00;;;7.00;85.60;;;;;;5063040;28;20228;-54
2022/03/05 12:38:18;;;;;;;4.50;2.50;;;6.40;85.80;;;;;;5065698;28;20217;-51
2022/03/05 12:41:02;;;;;;;3.33;1.93;;;6.40;86.70;;;;;;5064534;28;20201;-57
2022/03/05 12:43:47;;;;;;;2.90;1.90;;;6.30;86.70;;;;;;5063040;28;20200;-49
2022/03/05 12:46:31;;;;;;;8.77;2.90;;;6.20;86.90;;;;;;5065989;28;20197;-56
2022/03/05 12:49:16;;;;;;;5.47;2.97;;;6.00;87.00;;;;;;5062950;28;20203;-52
2022/03/05 12:52:00;;;;;;;7.70;4.00;;;6.20;87.50;;;;;;5064771;28;20263;-52
2022/03/05 12:54:45;;;;;;;8.47;3.80;;;6.30;86.90;;;;;;5065576;28;20196;-52
2022/03/05 12:57:29;;;;;;;11.90;5.03;;;6.30;86.50;;;;;;5062341;28;20272;-52
2022/03/05 13:00:14;;;;;;;4.47;2.30;;;6.40;86.50;;;;;;5065696;28;20205;-49
2022/03/05 13:02:59;;;;;;;2.67;2.23;;;6.20;87.30;;;;;;5064945;28;20190;-56
2022/03/05 13:05:47;;;;;;;3.80;1.73;;;6.10;88.10;;;;;;5062193;28;20259;-48
2022/03/05 13:08:37;;;;;;;1.90;1.70;;;6.30;87.40;;;;;;5067846;28;20213;-58
2022/03/05 13:11:23;;;;;;;4.03;1.73;;;6.50;85.20;;;;;;5067621;28;20252;-56
2022/03/05 13:14:07;;;;;;;3.50;1.90;;;6.30;84.00;;;;;;5066419;28;20196;-55
2022/03/05 13:16:52;;;;;;;2.53;1.40;;;6.30;84.70;;;;;;5069122;28;20222;-53
2022/03/05 13:19:36;;;;;;;2.70;1.63;;;6.30;85.10;;;;;;5067654;28;20201;-57
2022/03/05 13:22:25;;;;;;;11.93;5.03;;;6.00;84.80;;;;;;5068309;28;20259;-56
2022/03/05 13:25:11;;;;;;;5.60;2.43;;;5.90;87.30;;;;;;5069709;28;20229;-57
2022/03/05 13:27:57;;;;;;;3.47;2.00;;;6.10;89.80;;;;;;5066806;28;20282;-57
2022/03/05 13:30:52;;;;;;;4.63;1.90;;;6.30;89.90;;;;;;5068885;28;20209;-57
2022/03/05 13:33:39;;;;;;;3.27;2.03;;;6.50;88.70;;;;;;5069429;28;20190;-52
2022/03/05 13:36:28;;;;;;;4.23;2.37;;;6.20;87.00;;;;;;5066667;28;20237;-50
2022/03/05 13:39:21;;;;;;;3.20;1.67;;;6.20;86.60;;;;;;5068833;28;20222;-55
2022/03/05 13:42:12;;;;;;;2.50;1.83;;;6.20;88.30;;;;;;5069201;28;20225;-56
2022/03/05 13:45:00;;;;;;;25.13;8.40;;;6.40;87.70;;;;;;5066577;28;20291;-56
2022/03/05 13:47:47;;;;;;;9.17;4.53;;;6.70;88.00;;;;;;5069323;28;20395;-55
2022/03/05 13:50:38;;;;;;;4.13;2.07;;;6.50;85.50;;;;;;5067780;28;20244;-57
2022/03/05 13:53:22;;;;;;;4.23;2.07;;;6.20;85.90;;;;;;5065356;28;20225;-48
2022/03/05 13:56:06;;;;;;;2.67;1.70;;;5.70;86.40;;;;;;5068527;28;20214;-55
2022/03/05 13:58:52;;;;;;;11.37;4.47;;;5.60;87.00;;;;;;5067431;28;20193;-55
2022/03/05 14:01:43;;;;;;;3.33;2.00;;;5.70;87.80;;;;;;5065723;28;20185;-56
2022/03/05 14:04:28;;;;;;;2.60;1.93;;;5.70;88.20;;;;;;5068471;28;20218;-54
2022/03/05 14:07:14;;;;;;;3.47;1.67;;;5.60;88.20;;;;;;5065733;28;20290;-56
2022/03/05 14:09:59;;;;;;;6.27;2.10;;;5.50;88.10;;;;;;5066305;28;20281;-55
2022/03/05 14:12:48;;;;;;;3.13;1.97;;;5.40;88.20;;;;;;5068027;28;20197;-55
2022/03/05 14:15:33;;;;;;;4.00;2.10;;;5.60;87.50;;;;;;5064849;28;20719;-54
2022/03/05 14:18:17;;;;;;;5.87;2.93;;;5.60;86.80;;;;;;5066667;28;20221;-50
2022/03/05 14:21:16;;;;;;;4.60;1.83;;;5.40;87.50;;;;;;5067248;28;20302;-52
2022/03/05 14:24:03;;;;;;;2.70;1.60;;;5.50;88.60;;;;;;5065165;28;20275;-51
2022/03/05 14:26:48;;;;;;;3.83;2.00;;;5.60;88.30;;;;;;5067849;28;20193;-53
2022/03/05 14:29:32;;;;;;;3.50;2.00;;;5.70;88.40;;;;;;5068161;28;20256;-51